Time;durP1;ratioP1;P1;durP2;ratioP2;P2;SDS_P1;SDS_P2;PMS_P1;PMS_P2;Temp;Humidity;BMP_temperature;BMP_pressure;BME280_temperature;BME280_humidity;BME280_pressure;Samples;Min_cycle;Max_cycle;Signal;HPM_P1;HPM_P2
2021/11/11 00:00:10;;;;;;;12.65;8.60;;;7.60;99.90;;;;;;5053051;28;20032;-73
2021/11/11 00:02:36;;;;;;;19.63;8.90;;;7.60;99.90;;;;;;5053611;28;20044;-74
2021/11/11 00:05:03;;;;;;;18.10;10.77;;;7.50;99.90;;;;;;5053595;28;20056;-74
2021/11/11 00:07:29;;;;;;;19.77;11.80;;;7.60;99.90;;;;;;5053016;28;20423;-76
2021/11/11 00:09:57;;;;;;;16.65;10.13;;;7.50;99.90;;;;;;5052960;28;20053;-74
2021/11/11 00:12:25;;;;;;;16.33;8.63;;;7.30;99.90;;;;;;5053230;28;20017;-74
2021/11/11 00:14:54;;;;;;;13.73;8.02;;;7.20;99.90;;;;;;5052935;28;20029;-75
2021/11/11 00:17:20;;;;;;;18.10;8.95;;;7.20;99.90;;;;;;5052772;28;20055;-73
2021/11/11 00:19:46;;;;;;;24.35;13.73;;;7.30;99.90;;;;;;5052730;28;20037;-75
2021/11/11 00:22:12;;;;;;;32.53;17.40;;;7.40;99.90;;;;;;5053388;28;20028;-76
2021/11/11 00:24:37;;;;;;;20.65;10.00;;;7.30;99.90;;;;;;5052790;28;20484;-74
2021/11/11 00:27:03;;;;;;;14.98;8.07;;;7.30;99.90;;;;;;5052794;28;20057;-73
2021/11/11 00:29:29;;;;;;;13.55;8.52;;;7.20;99.90;;;;;;5052792;28;20435;-75
2021/11/11 00:31:54;;;;;;;18.20;10.20;;;7.30;99.90;;;;;;5053066;28;20100;-75
2021/11/11 00:34:20;;;;;;;25.05;13.90;;;7.30;99.90;;;;;;5053034;28;20147;-77
2021/11/11 00:36:46;;;;;;;18.00;10.45;;;7.30;99.90;;;;;;5056104;28;20025;-76
2021/11/11 00:39:11;;;;;;;17.50;10.27;;;7.30;99.90;;;;;;5057224;28;20091;-76
2021/11/11 00:41:37;;;;;;;14.00;8.30;;;7.20;99.90;;;;;;5057150;28;20021;-75
2021/11/11 00:44:03;;;;;;;14.27;8.75;;;7.10;99.90;;;;;;5056574;28;20024;-76
2021/11/11 00:46:28;;;;;;;15.77;8.98;;;7.20;99.90;;;;;;5056507;28;20032;-76
2021/11/11 00:48:54;;;;;;;15.38;9.63;;;7.20;99.90;;;;;;5056756;28;20036;-72
2021/11/11 00:51:20;;;;;;;20.00;10.85;;;7.10;99.90;;;;;;5056710;28;20024;-73
2021/11/11 00:53:45;;;;;;;17.73;11.05;;;7.00;99.90;;;;;;5056655;28;20048;-77
2021/11/11 00:56:12;;;;;;;20.65;12.10;;;7.00;99.90;;;;;;5056536;28;20033;-74
2021/11/11 00:58:37;;;;;;;15.77;9.35;;;6.80;99.90;;;;;;5056287;28;20440;-75
2021/11/11 01:01:03;;;;;;;16.60;10.00;;;6.70;99.90;;;;;;5056233;28;20021;-75
2021/11/11 01:03:40;;;;;;;14.43;8.05;;;6.70;99.90;;;;;;5056529;28;20021;-74
2021/11/11 01:06:07;;;;;;;13.82;8.20;;;6.80;99.90;;;;;;5056484;28;20546;-73
2021/11/11 01:08:33;;;;;;;14.20;8.57;;;6.50;99.90;;;;;;5056121;28;20482;-76
2021/11/11 01:11:00;;;;;;;17.45;9.32;;;6.50;99.90;;;;;;5056069;28;20017;-73
2021/11/11 01:13:26;;;;;;;27.50;15.40;;;6.20;99.90;;;;;;5056298;28;20074;-73
2021/11/11 01:15:52;;;;;;;35.17;19.02;;;6.50;99.90;;;;;;5055979;28;20053;-76
2021/11/11 01:18:18;;;;;;;28.85;16.27;;;6.90;99.90;;;;;;5055524;28;20454;-74
2021/11/11 01:20:44;;;;;;;24.40;14.05;;;7.10;99.90;;;;;;5055927;28;20482;-73
2021/11/11 01:23:09;;;;;;;31.48;16.70;;;7.00;99.90;;;;;;5037948;28;20033;-72
2021/11/11 01:25:38;;;;;;;23.73;16.15;;;7.10;99.90;;;;;;5055818;28;20052;-75
2021/11/11 01:28:05;;;;;;;24.92;15.50;;;6.90;99.90;;;;;;5055634;28;20112;-74
2021/11/11 01:30:31;;;;;;;20.17;11.13;;;6.70;99.90;;;;;;5055730;28;20082;-72
2021/11/11 01:32:57;;;;;;;18.15;10.77;;;6.80;99.90;;;;;;5055922;28;20035;-74
2021/11/11 01:35:23;;;;;;;19.13;11.70;;;6.80;99.90;;;;;;5055615;28;20021;-77
2021/11/11 01:37:48;;;;;;;19.80;10.77;;;6.80;99.90;;;;;;5055779;28;20036;-75
2021/11/11 01:40:15;;;;;;;65.43;31.63;;;6.90;99.90;;;;;;5055509;28;20367;-75
2021/11/11 01:42:49;;;;;;;28.58;11.57;;;6.80;99.90;;;;;;5055484;28;20020;-73
2021/11/11 01:45:15;;;;;;;46.20;20.65;;;6.80;99.90;;;;;;5055772;28;20016;-76
2021/11/11 01:47:42;;;;;;;77.40;34.03;;;6.60;99.90;;;;;;5055125;28;20104;-73
2021/11/11 01:50:11;;;;;;;90.72;40.05;;;6.60;99.90;;;;;;5055340;28;20076;-74
2021/11/11 01:52:36;;;;;;;37.50;18.15;;;6.50;99.90;;;;;;5055822;28;20025;-77
2021/11/11 01:55:04;;;;;;;80.68;37.25;;;6.50;99.90;;;;;;5055818;28;20029;-73
2021/11/11 01:57:30;;;;;;;102.53;43.92;;;6.50;99.90;;;;;;5055126;28;20039;-75
2021/11/11 01:59:56;;;;;;;44.80;19.90;;;6.50;99.90;;;;;;5055445;28;20099;-75
2021/11/11 02:02:29;;;;;;;21.40;9.52;;;6.50;99.90;;;;;;5055095;28;20431;-73
2021/11/11 02:04:55;;;;;;;31.90;10.40;;;6.50;99.90;;;;;;5055303;28;20422;-75
2021/11/11 02:07:22;;;;;;;20.38;10.95;;;6.60;99.90;;;;;;5055289;28;20032;-76
2021/11/11 02:09:48;;;;;;;46.67;12.63;;;6.70;99.90;;;;;;5037088;28;20028;-76
2021/11/11 02:12:14;;;;;;;16.20;9.00;;;6.60;99.90;;;;;;5055207;28;20032;-73
2021/11/11 02:14:40;;;;;;;40.40;10.25;;;6.50;99.90;;;;;;5055155;28;20151;-75
2021/11/11 02:17:06;;;;;;;40.85;10.00;;;6.60;99.90;;;;;;5055214;28;20107;-75
2021/11/11 02:19:31;;;;;;;27.35;12.95;;;6.60;99.90;;;;;;5054623;28;20122;-75
2021/11/11 02:21:57;;;;;;;45.83;12.77;;;6.60;99.90;;;;;;5055290;28;20017;-75
2021/11/11 02:24:23;;;;;;;45.53;17.17;;;6.50;99.90;;;;;;5055212;28;20088;-76
2021/11/11 02:26:51;;;;;;;25.55;10.07;;;6.30;99.90;;;;;;5054640;28;20033;-76
2021/11/11 02:29:17;;;;;;;68.22;15.27;;;6.40;99.90;;;;;;5054563;28;20017;-74
2021/11/11 02:31:44;;;;;;;22.40;10.15;;;6.40;99.90;;;;;;5054550;28;20025;-73
2021/11/11 02:34:12;;;;;;;28.90;10.85;;;6.40;99.90;;;;;;5055065;28;20025;-75
2021/11/11 02:37:02;;;;;;;68.47;17.90;;;6.30;99.90;;;;;;5054403;28;20029;-75
2021/11/11 02:39:30;;;;;;;32.72;19.88;;;6.30;99.90;;;;;;5054386;28;20548;-77
2021/11/11 02:41:55;;;;;;;24.38;12.43;;;6.30;99.90;;;;;;5054396;28;20029;-73
2021/11/11 02:44:22;;;;;;;43.13;9.63;;;6.20;99.90;;;;;;5054568;28;20028;-76
2021/11/11 02:46:47;;;;;;;30.75;12.30;;;6.20;99.90;;;;;;5054050;28;20417;-75
2021/11/11 02:49:13;;;;;;;36.08;11.27;;;6.10;99.90;;;;;;5054503;28;20112;-73
2021/11/11 02:51:39;;;;;;;18.02;13.07;;;6.20;99.90;;;;;;5054449;28;20120;-73
2021/11/11 02:54:04;;;;;;;27.48;10.30;;;6.10;99.90;;;;;;5054090;28;20032;-73
2021/11/11 02:56:30;;;;;;;22.40;8.15;;;6.20;99.90;;;;;;5054040;28;20036;-75
2021/11/11 02:58:55;;;;;;;20.95;8.85;;;6.30;99.90;;;;;;5053640;28;20028;-74
2021/11/11 03:01:21;;;;;;;18.95;9.30;;;6.40;99.90;;;;;;5054017;28;20037;-73
2021/11/11 03:03:47;;;;;;;16.30;9.25;;;6.20;99.90;;;;;;5053935;28;20021;-73
2021/11/11 03:06:14;;;;;;;17.23;9.10;;;6.20;99.90;;;;;;5053911;28;20040;-74
2021/11/11 03:08:40;;;;;;;16.95;8.93;;;6.20;99.90;;;;;;5054123;28;20024;-74
2021/11/11 03:11:09;;;;;;;20.63;9.65;;;6.20;99.90;;;;;;5053771;28;20540;-76
2021/11/11 03:13:34;;;;;;;20.98;9.85;;;6.20;99.90;;;;;;5054344;28;20024;-73
2021/11/11 03:16:00;;;;;;;18.55;9.10;;;6.20;99.90;;;;;;5053643;28;20390;-74
2021/11/11 03:18:26;;;;;;;22.40;9.35;;;6.10;99.90;;;;;;5053455;28;20063;-76
2021/11/11 03:20:52;;;;;;;12.60;7.07;;;6.20;99.90;;;;;;5053964;28;20052;-74
2021/11/11 03:23:17;;;;;;;14.40;8.57;;;6.10;99.90;;;;;;5053843;28;20412;-76
2021/11/11 03:25:43;;;;;;;21.17;12.90;;;6.10;99.90;;;;;;5053584;28;20055;-76
2021/11/11 03:28:09;;;;;;;14.85;8.40;;;6.20;99.90;;;;;;5053773;28;20064;-73
2021/11/11 03:30:36;;;;;;;17.95;10.05;;;6.40;99.90;;;;;;5053478;28;20107;-75
2021/11/11 03:33:03;;;;;;;14.23;8.75;;;6.20;99.90;;;;;;5053396;28;20025;-76
2021/11/11 03:35:29;;;;;;;14.75;8.65;;;6.20;99.90;;;;;;5053410;28;20086;-74
2021/11/11 03:37:58;;;;;;;15.23;8.18;;;6.20;99.90;;;;;;5053282;28;20017;-75
2021/11/11 03:40:26;;;;;;;13.15;8.02;;;6.30;99.90;;;;;;5053592;28;20142;-74
2021/11/11 03:42:53;;;;;;;19.00;9.50;;;6.20;99.90;;;;;;5053333;28;20021;-74
2021/11/11 03:45:19;;;;;;;17.73;9.07;;;6.00;99.90;;;;;;5053259;28;20021;-76
2021/11/11 03:47:46;;;;;;;18.42;9.02;;;6.20;99.90;;;;;;5053224;28;20021;-74
2021/11/11 03:50:14;;;;;;;23.00;9.27;;;6.20;99.90;;;;;;5053197;28;20029;-74
2021/11/11 03:52:40;;;;;;;25.98;11.38;;;6.30;99.90;;;;;;5053188;28;20478;-74
2021/11/11 03:55:08;;;;;;;34.35;15.63;;;6.10;99.90;;;;;;5053137;28;20036;-75
2021/11/11 03:57:34;;;;;;;20.40;12.10;;;6.10;99.90;;;;;;5053592;28;20107;-76
2021/11/11 04:00:00;;;;;;;21.77;11.38;;;6.10;99.90;;;;;;5053086;28;20029;-75
2021/11/11 04:02:26;;;;;;;14.93;9.05;;;6.10;99.90;;;;;;5053040;28;20052;-74
2021/11/11 04:04:53;;;;;;;18.17;8.88;;;6.00;99.90;;;;;;5053033;28;20053;-73
2021/11/11 04:07:19;;;;;;;29.02;9.68;;;6.10;99.90;;;;;;5053318;28;20029;-75
2021/11/11 04:09:45;;;;;;;19.63;10.05;;;6.00;99.90;;;;;;5054654;28;20437;-73
2021/11/11 04:12:12;;;;;;;14.73;9.77;;;5.80;99.90;;;;;;5057459;28;20044;-74
2021/11/11 04:14:38;;;;;;;13.68;8.80;;;5.60;99.90;;;;;;5057407;28;20025;-76
2021/11/11 04:17:04;;;;;;;14.13;9.10;;;5.60;99.90;;;;;;5057045;28;20029;-74
2021/11/11 04:19:29;;;;;;;15.75;9.52;;;5.90;99.90;;;;;;5056977;28;20056;-76
2021/11/11 04:21:56;;;;;;;14.48;9.43;;;6.00;99.90;;;;;;5057025;28;20530;-73
2021/11/11 04:24:22;;;;;;;20.83;9.40;;;5.80;99.90;;;;;;5056959;28;20478;-75
2021/11/11 04:26:58;;;;;;;13.60;9.15;;;5.60;99.90;;;;;;5056940;28;20040;-76
2021/11/11 04:29:26;;;;;;;15.30;9.02;;;5.50;99.90;;;;;;5057127;28;20478;-73
2021/11/11 04:31:57;;;;;;;25.77;9.55;;;5.70;99.90;;;;;;5056815;28;20486;-75
2021/11/11 04:34:24;;;;;;;34.35;10.35;;;5.40;99.90;;;;;;5057077;28;20029;-75
2021/11/11 04:49:57;;;;;;;28.30;10.18;;;4.70;99.90;;;;;;5056493;28;20025;-73
2021/11/11 04:52:22;;;;;;;21.45;9.18;;;4.80;99.90;;;;;;5054900;28;20033;-74
2021/11/11 05:05:28;;;;;;;46.80;13.82;;;5.00;99.90;;;;;;5056513;28;20498;-76
2021/11/11 05:07:55;;;;;;;20.10;11.32;;;4.80;99.90;;;;;;5056134;28;20064;-72
2021/11/11 05:10:21;;;;;;;30.17;11.32;;;4.80;99.90;;;;;;5056408;28;20025;-76
2021/11/11 05:12:47;;;;;;;21.17;10.10;;;5.00;99.90;;;;;;5056323;28;20478;-75
2021/11/11 05:15:14;;;;;;;20.65;11.18;;;4.80;99.90;;;;;;5056040;28;20024;-75
2021/11/11 05:17:43;;;;;;;19.85;10.65;;;4.60;99.90;;;;;;5055803;28;20029;-72
2021/11/11 05:20:10;;;;;;;17.25;10.27;;;4.50;99.90;;;;;;5055676;28;20045;-73
2021/11/11 05:22:36;;;;;;;15.30;10.27;;;4.50;99.90;;;;;;5055775;28;20032;-74
2021/11/11 05:25:03;;;;;;;50.13;12.68;;;4.60;99.90;;;;;;5055812;28;20029;-77
2021/11/11 05:27:28;;;;;;;24.40;11.60;;;4.60;99.90;;;;;;5056320;28;20108;-75
2021/11/11 05:29:54;;;;;;;25.42;11.93;;;4.50;99.90;;;;;;5056051;28;20447;-74
2021/11/11 05:32:20;;;;;;;17.20;11.18;;;4.50;99.90;;;;;;5056270;28;20025;-72
2021/11/11 05:34:46;;;;;;;13.35;8.95;;;4.60;99.90;;;;;;5055658;28;20059;-74
2021/11/11 05:37:13;;;;;;;14.45;10.32;;;5.10;99.90;;;;;;5055786;28;20068;-76
2021/11/11 05:39:39;;;;;;;17.33;11.10;;;5.20;99.90;;;;;;5055544;28;20009;-73
2021/11/11 05:42:05;;;;;;;15.07;10.35;;;5.30;99.90;;;;;;5055808;28;20079;-75
2021/11/11 05:44:31;;;;;;;15.90;10.52;;;5.30;99.90;;;;;;5055490;28;20045;-74
2021/11/11 05:46:57;;;;;;;32.60;12.48;;;5.40;99.90;;;;;;5055425;28;20461;-75
2021/11/11 05:49:24;;;;;;;15.75;11.23;;;5.20;99.90;;;;;;5055352;28;20029;-76
2021/11/11 05:51:51;;;;;;;14.70;10.20;;;5.10;99.90;;;;;;5055312;28;20032;-73
2021/11/11 05:54:17;;;;;;;14.88;10.32;;;5.40;99.90;;;;;;5055851;28;20017;-73
2021/11/11 05:56:43;;;;;;;17.20;10.18;;;5.40;99.90;;;;;;5055461;28;20055;-77
2021/11/11 05:59:09;;;;;;;15.55;9.48;;;5.30;99.90;;;;;;5055171;28;20017;-74
2021/11/11 06:01:35;;;;;;;18.60;9.77;;;5.40;99.90;;;;;;5055143;28;20029;-75
2021/11/11 06:04:01;;;;;;;16.10;9.85;;;5.40;99.90;;;;;;5055347;28;20031;-73
2021/11/11 06:06:28;;;;;;;16.15;10.70;;;5.30;99.90;;;;;;5055054;28;20028;-76
2021/11/11 06:08:54;;;;;;;23.25;12.77;;;5.30;99.90;;;;;;5055037;28;20021;-76
2021/11/11 06:11:20;;;;;;;50.13;15.20;;;5.20;99.90;;;;;;5054927;28;20071;-73
2021/11/11 06:13:46;;;;;;;44.80;13.77;;;4.90;99.90;;;;;;5054907;28;20024;-74
2021/11/11 06:16:11;;;;;;;42.08;12.88;;;4.80;99.90;;;;;;5054826;28;20507;-72
2021/11/11 06:18:37;;;;;;;29.10;12.68;;;4.60;99.90;;;;;;5055007;28;20124;-77
2021/11/11 06:21:03;;;;;;;31.15;12.60;;;4.60;99.90;;;;;;5055353;28;20100;-74
2021/11/11 06:23:29;;;;;;;42.67;12.18;;;4.50;99.90;;;;;;5054724;28;20531;-75
2021/11/11 06:25:55;;;;;;;17.88;12.13;;;4.60;99.90;;;;;;5054697;28;20013;-76
2021/11/11 06:28:21;;;;;;;32.22;12.57;;;4.50;99.90;;;;;;5054902;28;20159;-74
2021/11/11 06:30:47;;;;;;;17.35;11.50;;;4.90;99.90;;;;;;5054893;28;20036;-75
2021/11/11 06:33:13;;;;;;;19.30;12.20;;;5.20;99.90;;;;;;5053479;28;20021;-77
2021/11/11 06:35:39;;;;;;;18.45;12.45;;;5.20;99.90;;;;;;5054471;28;20029;-73
2021/11/11 06:38:04;;;;;;;17.77;12.23;;;5.20;99.90;;;;;;5054086;28;20025;-72
2021/11/11 06:40:32;;;;;;;27.30;14.20;;;5.20;99.90;;;;;;5054453;28;20390;-74
2021/11/11 06:42:59;;;;;;;18.92;13.75;;;5.10;99.90;;;;;;5054378;28;20029;-75
2021/11/11 06:45:26;;;;;;;35.92;15.73;;;5.20;99.90;;;;;;5054316;28;20075;-75
2021/11/11 06:47:53;;;;;;;44.10;25.85;;;5.20;99.90;;;;;;5054813;28;20466;-76
2021/11/11 06:50:19;;;;;;;37.63;16.15;;;5.00;99.90;;;;;;5054251;28;20035;-77
2021/11/11 06:52:45;;;;;;;20.30;14.15;;;5.10;99.90;;;;;;5054456;28;20391;-73
2021/11/11 06:55:11;;;;;;;18.08;13.27;;;5.10;99.90;;;;;;5054396;28;20029;-76
2021/11/11 06:57:38;;;;;;;27.95;21.23;;;5.10;99.90;;;;;;5054529;28;20075;-75
2021/11/11 07:00:07;;;;;;;37.13;19.58;;;5.20;99.90;;;;;;5054323;28;20036;-75
2021/11/11 07:02:33;;;;;;;27.45;17.33;;;5.40;99.90;;;;;;5053887;28;20024;-72
2021/11/11 07:04:58;;;;;;;23.05;12.82;;;5.40;99.90;;;;;;5053986;28;20104;-74
2021/11/11 07:07:24;;;;;;;20.00;11.57;;;5.40;99.90;;;;;;5053899;28;20049;-75
2021/11/11 07:09:49;;;;;;;30.42;11.98;;;5.30;99.90;;;;;;5054111;28;20367;-72
2021/11/11 07:12:15;;;;;;;18.80;13.52;;;5.30;99.90;;;;;;5053808;28;20021;-72
2021/11/11 07:14:42;;;;;;;20.92;14.50;;;5.20;99.90;;;;;;5053781;28;20025;-76
2021/11/11 07:17:09;;;;;;;32.15;13.98;;;5.20;99.90;;;;;;5053527;28;20021;-76
2021/11/11 07:19:35;;;;;;;16.58;12.00;;;5.10;99.90;;;;;;5053498;28;20051;-74
2021/11/11 07:22:02;;;;;;;32.45;12.98;;;5.10;99.90;;;;;;5053936;28;20017;-72
2021/11/11 07:24:30;;;;;;;29.88;17.95;;;5.40;99.90;;;;;;5054139;28;20477;-76
2021/11/11 07:26:56;;;;;;;20.65;14.23;;;5.20;99.90;;;;;;5053570;28;20021;-73
2021/11/11 07:29:21;;;;;;;22.25;14.13;;;5.20;99.90;;;;;;5053559;28;20036;-75
2021/11/11 07:31:52;;;;;;;20.02;14.00;;;5.20;99.90;;;;;;5053507;28;20391;-73
2021/11/11 07:34:22;;;;;;;22.08;13.63;;;5.30;99.90;;;;;;5053782;28;20021;-76
2021/11/11 07:36:47;;;;;;;19.25;11.77;;;5.40;99.90;;;;;;5053671;28;20044;-74
2021/11/11 07:39:15;;;;;;;21.98;11.15;;;5.40;99.90;;;;;;5035488;28;20398;-75
2021/11/11 07:41:43;;;;;;;15.35;9.68;;;5.30;99.90;;;;;;5053625;28;20023;-76
2021/11/11 07:44:10;;;;;;;15.60;9.95;;;5.40;99.90;;;;;;5053038;28;20087;-73
2021/11/11 07:46:37;;;;;;;15.25;10.05;;;5.60;99.90;;;;;;5053519;28;20017;-75
2021/11/11 07:49:04;;;;;;;22.63;11.13;;;5.30;99.90;;;;;;5053484;28;20020;-76
2021/11/11 07:51:30;;;;;;;15.40;10.90;;;5.10;99.90;;;;;;5053461;28;20025;-76
2021/11/11 07:53:56;;;;;;;17.00;10.68;;;5.00;99.90;;;;;;5053183;28;20030;-75
2021/11/11 07:56:22;;;;;;;15.30;10.30;;;5.30;99.90;;;;;;5053439;28;20048;-73
2021/11/11 07:58:47;;;;;;;15.93;10.32;;;5.30;99.90;;;;;;5053611;28;20068;-74
2021/11/11 08:01:13;;;;;;;20.23;12.15;;;5.30;99.90;;;;;;5053333;28;20024;-72
2021/11/11 08:03:39;;;;;;;24.35;11.90;;;5.30;99.90;;;;;;5053064;28;20025;-73
2021/11/11 08:06:04;;;;;;;22.00;12.00;;;5.10;99.90;;;;;;5053003;28;20071;-76
2021/11/11 08:08:30;;;;;;;19.58;12.52;;;5.00;99.90;;;;;;5053290;28;20029;-75
2021/11/11 08:10:57;;;;;;;14.60;11.00;;;4.80;99.90;;;;;;5053251;28;20104;-76
2021/11/11 08:13:23;;;;;;;22.35;13.20;;;4.90;99.90;;;;;;5053217;28;20029;-75
2021/11/11 08:15:49;;;;;;;20.98;12.50;;;5.20;99.90;;;;;;5052960;28;20109;-73
2021/11/11 08:18:15;;;;;;;33.63;14.73;;;5.40;99.90;;;;;;5052510;28;20033;-75
2021/11/11 08:20:41;;;;;;;27.48;14.35;;;5.30;99.90;;;;;;5052901;28;20040;-74
2021/11/11 08:23:06;;;;;;;34.72;14.73;;;5.20;99.90;;;;;;5053150;28;20024;-75
2021/11/11 08:25:33;;;;;;;26.38;18.10;;;5.10;99.90;;;;;;5053153;28;20035;-76
2021/11/11 08:27:59;;;;;;;21.75;13.68;;;5.20;99.90;;;;;;5052836;28;20021;-74
2021/11/11 08:30:24;;;;;;;22.63;15.00;;;5.10;99.90;;;;;;5052797;28;20040;-76
2021/11/11 08:32:52;;;;;;;24.92;15.18;;;5.30;99.90;;;;;;5052834;28;20021;-75
2021/11/11 08:35:20;;;;;;;29.95;15.40;;;5.30;99.90;;;;;;5052792;28;20111;-76
2021/11/11 08:37:46;;;;;;;21.80;13.32;;;5.10;99.90;;;;;;5052674;28;20099;-74
2021/11/11 08:40:14;;;;;;;21.83;13.75;;;5.00;99.90;;;;;;5052733;28;20025;-73
2021/11/11 08:42:41;;;;;;;24.00;14.55;;;4.90;99.90;;;;;;5052726;28;20475;-75
2021/11/11 08:45:08;;;;;;;24.48;14.85;;;5.00;99.90;;;;;;5052676;28;20033;-73
2021/11/11 08:47:34;;;;;;;23.00;16.13;;;5.10;99.90;;;;;;5052285;28;20036;-74
2021/11/11 08:49:59;;;;;;;23.42;15.90;;;5.30;99.90;;;;;;5052629;28;20029;-75
2021/11/11 08:52:25;;;;;;;38.17;15.75;;;5.50;99.90;;;;;;5052913;28;20029;-74
2021/11/11 08:54:53;;;;;;;34.13;16.10;;;5.30;99.90;;;;;;5052562;28;20100;-75
2021/11/11 08:57:18;;;;;;;27.63;16.00;;;5.20;99.90;;;;;;5054832;28;20022;-75
2021/11/11 08:59:51;;;;;;;39.38;17.70;;;5.20;99.90;;;;;;5056354;28;20027;-76
2021/11/11 09:02:17;;;;;;;23.38;16.50;;;5.20;99.90;;;;;;5056354;28;20390;-72
2021/11/11 09:04:43;;;;;;;49.88;19.85;;;5.40;99.90;;;;;;5056252;28;20025;-73
2021/11/11 09:07:09;;;;;;;25.98;16.83;;;5.70;99.90;;;;;;5056473;28;20028;-73
2021/11/11 09:09:35;;;;;;;34.38;16.02;;;5.80;99.90;;;;;;5056106;28;20029;-73
2021/11/11 09:12:02;;;;;;;26.42;15.65;;;6.00;99.90;;;;;;5056121;28;20029;-73
2021/11/11 09:14:29;;;;;;;46.42;15.80;;;5.90;99.90;;;;;;5056601;28;20530;-74
2021/11/11 09:16:54;;;;;;;36.42;15.10;;;5.80;99.90;;;;;;5055724;28;20025;-74
2021/11/11 09:19:20;;;;;;;25.90;15.10;;;5.80;99.90;;;;;;5056038;28;20183;-74
2021/11/11 09:21:46;;;;;;;18.63;13.70;;;5.80;99.90;;;;;;5055898;28;20017;-73
2021/11/11 09:24:11;;;;;;;25.45;14.70;;;5.90;99.90;;;;;;5055878;28;20530;-80
2021/11/11 09:26:41;;;;;;;34.83;16.20;;;6.00;99.90;;;;;;5055765;28;20096;-81
2021/11/11 09:29:08;;;;;;;32.08;14.60;;;6.20;99.90;;;;;;5056032;28;20497;-76
2021/11/11 09:31:36;;;;;;;26.33;13.63;;;6.40;99.90;;;;;;5055670;28;20486;-81
2021/11/11 09:34:03;;;;;;;19.73;14.23;;;6.60;99.90;;;;;;5055621;28;20499;-79
2021/11/11 09:36:29;;;;;;;35.95;13.90;;;6.70;99.90;;;;;;5055768;28;20028;-82
2021/11/11 09:38:54;;;;;;;23.17;13.73;;;6.80;99.90;;;;;;5055548;28;20025;-77
2021/11/11 09:41:22;;;;;;;16.92;12.75;;;6.70;99.90;;;;;;5055471;28;20028;-76
2021/11/11 09:43:47;;;;;;;23.10;13.35;;;6.80;99.90;;;;;;5055776;28;20045;-76
2021/11/11 09:46:15;;;;;;;27.73;14.68;;;6.80;99.90;;;;;;5055540;28;20087;-77
2021/11/11 09:48:42;;;;;;;29.48;14.32;;;6.70;99.90;;;;;;5055329;28;20047;-77
2021/11/11 09:51:13;;;;;;;20.10;13.35;;;6.80;99.90;;;;;;5055852;28;20021;-76
2021/11/11 09:53:51;;;;;;;;;;;7.00;99.90;;;;;;5055951;28;20429;-81
2021/11/11 09:59:01;;;;;;;28.38;15.60;;;7.10;99.90;;;;;;5045608;28;20040;-81
2021/11/11 10:01:27;;;;;;;22.52;14.68;;;6.80;99.90;;;;;;5021249;28;20503;-80
2021/11/11 10:03:54;;;;;;;26.83;16.92;;;7.10;99.90;;;;;;5031412;28;20029;-80
2021/11/11 10:06:24;;;;;;;27.80;16.30;;;7.30;99.90;;;;;;5049380;28;20075;-81
2021/11/11 10:09:10;;;;;;;28.02;14.75;;;7.60;99.90;;;;;;5035225;28;20079;-80
2021/11/11 10:11:49;;;;;;;27.95;16.58;;;7.40;99.90;;;;;;5034634;28;20033;-80
2021/11/11 10:14:22;;;;;;;20.88;15.27;;;7.30;99.90;;;;;;5035254;28;20026;-79
2021/11/11 10:16:54;;;;;;;23.77;16.30;;;7.50;99.90;;;;;;5034903;28;20101;-83
2021/11/11 10:19:20;;;;;;;23.35;15.30;;;7.80;99.90;;;;;;5034762;28;20547;-80
2021/11/11 10:21:58;;;;;;;23.20;16.42;;;8.10;99.90;;;;;;5017119;28;20045;-80
2021/11/11 10:24:30;;;;;;;23.55;15.63;;;8.20;99.90;;;;;;5035503;28;20398;-83
2021/11/11 10:26:56;;;;;;;32.28;18.73;;;8.30;99.90;;;;;;5055070;28;20024;-81
2021/11/11 10:29:31;;;;;;;24.90;17.80;;;8.40;99.90;;;;;;5054666;28;20513;-79
2021/11/11 10:32:07;;;;;;;22.77;17.30;;;8.40;99.90;;;;;;5054678;28;20104;-79
2021/11/11 10:34:35;;;;;;;23.23;16.38;;;8.50;99.90;;;;;;5038399;28;20074;-81
2021/11/11 10:37:00;;;;;;;30.65;17.30;;;8.40;99.90;;;;;;5054421;28;20021;-81
2021/11/11 10:39:31;;;;;;;29.70;16.40;;;8.40;99.90;;;;;;5054729;28;20032;-82
2021/11/11 10:41:59;;;;;;;24.17;17.52;;;8.40;99.90;;;;;;5035926;28;20513;-80
2021/11/11 10:44:33;;;;;;;28.48;17.73;;;8.50;99.90;;;;;;5054311;28;20025;-79
2021/11/11 10:47:03;;;;;;;25.80;18.77;;;8.30;99.90;;;;;;5054531;28;20483;-79
2021/11/11 10:49:37;;;;;;;24.13;17.90;;;8.10;99.90;;;;;;5054349;28;20025;-78
2021/11/11 10:52:22;;;;;;;26.13;18.77;;;8.00;99.90;;;;;;5054887;28;20378;-77
2021/11/11 10:55:13;;;;;;;25.27;18.00;;;8.10;99.90;;;;;;5034582;28;20053;-79
2021/11/11 10:57:42;;;;;;;28.85;18.95;;;8.00;99.90;;;;;;5034523;28;20026;-80
2021/11/11 11:00:21;;;;;;;25.98;19.85;;;7.90;99.90;;;;;;5034995;28;20091;-78
2021/11/11 11:02:50;;;;;;;32.50;21.77;;;8.00;99.90;;;;;;5034363;28;20479;-79
2021/11/11 11:05:22;;;;;;;27.13;20.13;;;8.00;99.90;;;;;;5049711;28;20288;-80
2021/11/11 11:07:52;;;;;;;28.63;21.17;;;8.10;99.90;;;;;;5053110;28;20024;-79
2021/11/11 11:10:18;;;;;;;28.55;21.20;;;8.20;99.90;;;;;;5053099;28;20398;-79
2021/11/11 11:12:44;;;;;;;33.97;24.13;;;8.30;99.90;;;;;;5053814;28;20025;-78
2021/11/11 11:15:47;;;;;;;28.05;21.67;;;8.40;99.90;;;;;;5034779;28;20034;-79
2021/11/11 11:18:15;;;;;;;29.67;22.08;;;8.40;99.90;;;;;;5033614;28;20029;-80
2021/11/11 11:20:42;;;;;;;32.28;21.73;;;8.50;99.90;;;;;;5033302;28;20025;-79
2021/11/11 11:23:25;;;;;;;33.75;23.33;;;8.60;99.90;;;;;;5049788;28;20231;-80
2021/11/11 11:26:07;;;;;;;33.42;23.30;;;8.60;99.90;;;;;;5054225;28;20485;-78
2021/11/11 11:28:50;;;;;;;36.45;22.50;;;8.60;99.90;;;;;;5043062;28;20487;-78
2021/11/11 11:31:28;;;;;;;39.20;25.25;;;8.70;99.90;;;;;;5033437;28;20029;-79
2021/11/11 11:34:19;;;;;;;38.08;25.70;;;8.70;99.90;;;;;;5033299;28;20471;-78
2021/11/11 11:36:50;;;;;;;;;;;8.70;99.90;;;;;;5032385;28;20033;-77
2021/11/11 11:39:24;;;;;;;35.05;24.27;;;8.90;99.90;;;;;;5032023;28;20402;-79
2021/11/11 11:41:51;;;;;;;41.28;25.63;;;8.80;99.90;;;;;;5032124;28;20032;-77
2021/11/11 11:44:36;;;;;;;38.30;24.75;;;8.90;99.90;;;;;;5032325;28;20065;-79
2021/11/11 11:47:32;;;;;;;43.10;25.73;;;8.90;99.90;;;;;;5032292;28;20029;-79
2021/11/11 11:50:03;;;;;;;32.15;23.80;;;9.00;99.90;;;;;;5032531;28;20029;-79
2021/11/11 11:52:31;;;;;;;37.85;23.52;;;9.10;99.90;;;;;;5031438;28;20076;-78
2021/11/11 11:57:30;;;;;;;39.42;25.67;;;9.30;99.90;;;;;;5031576;28;20068;-80
2021/11/11 12:00:03;;;;;;;39.08;25.48;;;9.40;99.90;;;;;;5031477;28;20049;-79
2021/11/11 12:11:33;;;;;;;41.35;24.58;;;9.60;99.90;;;;;;4989310;28;20507;-80
2021/11/11 12:17:30;;;;;;;34.78;24.52;;;9.60;99.90;;;;;;4989046;28;20037;-80
2021/11/11 12:28:42;;;;;;;30.70;19.77;;;10.00;99.90;;;;;;5033260;28;20553;-77
2021/11/11 12:39:51;;;;;;;27.88;18.25;;;10.60;99.90;;;;;;5036568;28;20028;-79
2021/11/11 12:42:19;;;;;;;31.08;20.00;;;10.60;99.90;;;;;;5037335;28;20022;-79
2021/11/11 12:45:18;;;;;;;32.50;20.50;;;10.60;99.90;;;;;;5037228;28;20026;-78
2021/11/11 12:48:05;;;;;;;30.43;20.30;;;10.60;99.90;;;;;;5036982;28;20498;-79
2021/11/11 12:50:39;;;;;;;32.30;19.65;;;10.60;99.90;;;;;;5036892;28;20739;-79
2021/11/11 12:53:11;;;;;;;33.58;20.95;;;10.60;99.90;;;;;;5036831;28;20109;-79
2021/11/11 12:55:57;;;;;;;29.13;19.48;;;10.70;99.90;;;;;;5036662;28;20475;-77
2021/11/11 12:58:29;;;;;;;32.05;20.00;;;10.70;99.90;;;;;;5036573;28;20120;-78
2021/11/11 13:00:59;;;;;;;31.48;18.30;;;10.70;99.90;;;;;;5036891;28;20017;-78
2021/11/11 13:03:43;;;;;;;;;;;10.70;99.90;;;;;;5037409;28;20071;-78
2021/11/11 13:06:09;;;;;;;28.48;17.67;;;10.80;99.90;;;;;;5036375;28;19912;-79
2021/11/11 13:08:53;;;;;;;30.27;16.23;;;10.80;99.90;;;;;;5036248;28;20487;-79
2021/11/11 13:11:30;;;;;;;27.98;17.45;;;10.80;99.90;;;;;;5036559;28;20105;-80
2021/11/11 13:14:19;;;;;;;22.80;16.05;;;10.90;99.90;;;;;;5036499;28;20026;-79
2021/11/11 13:16:53;;;;;;;26.75;16.83;;;10.90;99.90;;;;;;5036233;28;20040;-80
2021/11/11 13:19:36;;;;;;;28.35;16.30;;;11.00;99.90;;;;;;5035854;28;20045;-79
2021/11/11 13:22:23;;;;;;;27.00;16.00;;;11.00;99.90;;;;;;5036010;28;20553;-78
2021/11/11 13:28:04;;;;;;;25.70;16.15;;;11.10;99.90;;;;;;5036240;28;20115;-79
2021/11/11 16:19:32;;;;;;;33.58;22.33;;;11.40;99.90;;;;;;5033214;28;20018;-80
2021/11/11 16:25:24;;;;;;;31.27;22.25;;;11.30;99.90;;;;;;5033323;28;20064;-79
2021/11/11 16:27:50;;;;;;;32.22;21.98;;;11.20;99.90;;;;;;5033301;28;20104;-80
2021/11/11 16:30:19;;;;;;;31.05;20.10;;;11.20;99.90;;;;;;5032976;28;20111;-78
2021/11/11 16:32:46;;;;;;;30.45;22.27;;;11.20;99.90;;;;;;5032877;28;20394;-79
2021/11/11 16:35:14;;;;;;;33.72;24.00;;;11.20;99.90;;;;;;5033184;28;20017;-79
2021/11/11 16:37:41;;;;;;;30.23;22.77;;;11.20;99.90;;;;;;5033032;28;20022;-79